Time;durP1;ratioP1;P1;durP2;ratioP2;P2;SDS_P1;SDS_P2;PMS_P1;PMS_P2;Temp;Humidity;BMP_temperature;BMP_pressure;BME280_temperature;BME280_humidity;BME280_pressure;Samples;Min_cycle;Max_cycle;Signal;HPM_P1;HPM_P2
2021/05/07 00:01:37;;;;;;;17.40;13.60;;;;;;;7.64;100.00;99622.94;5228183;28;20039;-78
2021/05/07 00:04:08;;;;;;;19.70;14.10;;;;;;;7.57;100.00;99617.16;5232254;28;20035;-78
2021/05/07 00:06:38;;;;;;;20.10;14.02;;;;;;;7.46;100.00;99629.72;5229324;28;20444;-78
2021/05/07 00:09:09;;;;;;;19.30;14.52;;;;;;;7.50;100.00;99625.25;5227362;28;20115;-78
2021/05/07 00:11:39;;;;;;;19.33;14.63;;;;;;;7.45;100.00;99627.16;5236489;28;20111;-78
2021/05/07 00:14:09;;;;;;;18.75;14.23;;;;;;;7.38;100.00;99618.75;5232576;28;20501;-78
2021/05/07 00:16:40;;;;;;;21.30;15.82;;;;;;;7.46;100.00;99626.25;5231279;28;20017;-78
2021/05/07 00:19:10;;;;;;;19.42;14.93;;;;;;;7.43;100.00;99623.78;5232570;28;20021;-78
2021/05/07 00:21:41;;;;;;;20.58;15.18;;;;;;;7.46;100.00;99629.72;5227785;28;20024;-78
2021/05/07 00:24:11;;;;;;;20.40;15.07;;;;;;;7.34;100.00;99624.13;5230491;28;20553;-78
2021/05/07 00:26:41;;;;;;;19.05;14.05;;;;;;;7.45;100.00;99624.56;5238400;28;20029;-78
2021/05/07 00:29:12;;;;;;;18.73;14.30;;;;;;;7.29;100.00;99626.91;5238907;28;20040;-78
2021/05/07 00:31:42;;;;;;;18.83;14.43;;;;;;;7.49;100.00;99619.19;5239043;28;20393;-78
2021/05/07 00:34:12;;;;;;;18.55;14.48;;;;;;;7.37;100.00;99627.44;5235496;28;20059;-78
2021/05/07 00:36:43;;;;;;;22.52;14.95;;;;;;;7.45;100.00;99617.63;5237028;28;20025;-78
2021/05/07 00:39:13;;;;;;;19.45;14.70;;;;;;;7.45;100.00;99625.41;5235310;28;20482;-78
2021/05/07 00:41:43;;;;;;;20.98;15.18;;;;;;;7.41;100.00;99623.84;5236644;28;20028;-78
2021/05/07 00:44:14;;;;;;;20.38;15.38;;;;;;;7.40;100.00;99618.69;5246352;28;20024;-78
2021/05/07 00:46:45;;;;;;;18.20;14.20;;;;;;;7.49;100.00;99626.16;5239095;28;20052;-78
2021/05/07 00:49:16;;;;;;;18.27;13.93;;;;;;;7.33;100.00;99623.28;5241477;28;20099;-78
2021/05/07 00:51:46;;;;;;;18.50;13.93;;;;;;;7.18;100.00;99622.16;5238500;28;20179;-78
2021/05/07 00:54:17;;;;;;;18.25;14.02;;;;;;;6.96;100.00;99618.66;5236890;28;20024;-78
2021/05/07 00:56:47;;;;;;;20.50;15.18;;;;;;;7.00;100.00;99631.47;5234184;28;20035;-78
2021/05/07 00:59:17;;;;;;;21.08;14.60;;;;;;;7.06;100.00;99625.19;5244879;28;20032;-78
2021/05/07 01:01:49;;;;;;;17.85;14.00;;;;;;;7.03;100.00;99627.91;5245583;28;20024;-78
2021/05/07 01:04:19;;;;;;;19.15;14.43;;;;;;;7.12;100.00;99627.59;5233506;28;20112;-78
2021/05/07 01:06:49;;;;;;;18.50;14.63;;;;;;;7.24;100.00;99627.13;5237294;28;20099;-78
2021/05/07 01:09:20;;;;;;;17.45;13.45;;;;;;;7.19;100.00;99618.66;5233915;28;20024;-78
2021/05/07 01:11:51;;;;;;;20.45;14.80;;;;;;;7.17;100.00;99623.91;5237182;28;20063;-78
2021/05/07 01:14:21;;;;;;;18.73;14.15;;;;;;;7.09;100.00;99622.50;5233502;28;20055;-78
2021/05/07 01:16:52;;;;;;;19.35;15.07;;;;;;;7.36;100.00;99632.72;5234774;28;20025;-78
2021/05/07 01:19:22;;;;;;;17.48;13.45;;;;;;;7.36;100.00;99619.72;5239500;28;20053;-78
2021/05/07 01:21:52;;;;;;;16.95;13.35;;;;;;;7.22;100.00;99621.13;5236827;28;20043;-78
2021/05/07 01:24:26;;;;;;;18.20;13.25;;;;;;;7.11;100.00;99620.69;5215406;28;20428;-78
2021/05/07 01:26:56;;;;;;;16.65;13.13;;;;;;;6.94;100.00;99617.88;5236293;28;20047;-78
2021/05/07 01:29:26;;;;;;;16.40;12.65;;;;;;;6.66;100.00;99619.75;5242938;28;20020;-78
2021/05/07 01:31:57;;;;;;;16.08;12.13;;;;;;;6.90;100.00;99622.31;5243620;28;20056;-78
2021/05/07 01:34:27;;;;;;;16.08;11.68;;;;;;;6.84;100.00;99613.91;5233949;28;20021;-78
2021/05/07 01:36:58;;;;;;;15.93;11.88;;;;;;;6.96;100.00;99618.66;5233718;28;20024;-78
2021/05/07 01:39:28;;;;;;;16.90;12.20;;;;;;;7.07;99.25;99613.94;5233683;28;20027;-78
2021/05/07 01:41:58;;;;;;;17.00;12.48;;;;;;;6.98;98.75;99609.06;5235402;28;20017;-78
2021/05/07 01:44:29;;;;;;;15.85;11.70;;;;;;;6.81;99.70;99617.47;5233555;28;20509;-78
2021/05/07 01:46:59;;;;;;;14.63;10.73;;;;;;;6.71;100.00;99630.81;5259656;22;20040;-77
2021/05/07 01:49:30;;;;;;;16.30;12.02;;;;;;;6.77;100.00;99625.41;5236167;28;20031;-80
2021/05/07 01:52:00;;;;;;;16.20;12.15;;;;;;;6.93;100.00;99631.75;5235068;28;20028;-79
2021/05/07 01:54:30;;;;;;;16.48;11.73;;;;;;;6.85;100.00;99629.44;5234494;28;20032;-79
2021/05/07 01:57:01;;;;;;;15.30;11.75;;;;;;;6.72;100.00;99627.31;5233830;28;20028;-77
2021/05/07 01:59:31;;;;;;;15.15;11.65;;;;;;;6.79;100.00;99636.59;5233596;28;20032;-76
2021/05/07 02:02:01;;;;;;;15.32;11.45;;;;;;;6.35;100.00;99645.03;5241541;28;20021;-76
2021/05/07 02:04:31;;;;;;;17.48;12.10;;;;;;;6.48;100.00;99635.94;5226898;28;20462;-77
2021/05/07 02:07:02;;;;;;;15.00;11.55;;;;;;;6.48;100.00;99633.34;5221818;28;20466;-78
2021/05/07 02:09:33;;;;;;;15.77;12.30;;;;;;;6.52;100.00;99633.22;5219545;28;20051;-78
2021/05/07 02:12:03;;;;;;;18.02;12.52;;;;;;;6.53;100.00;99631.44;5221505;28;20055;-77
2021/05/07 02:14:35;;;;;;;18.70;14.15;;;;;;;6.37;100.00;99631.13;5222867;28;20039;-77
2021/05/07 02:17:05;;;;;;;17.85;13.38;;;;;;;6.58;100.00;99629.56;5218268;28;20055;-79
2021/05/07 02:19:36;;;;;;;18.65;14.23;;;;;;;6.52;100.00;99633.22;5244582;28;20032;-78
2021/05/07 02:22:06;;;;;;;17.38;13.52;;;;;;;6.60;100.00;99632.94;5225740;28;20025;-78
2021/05/07 02:24:36;;;;;;;17.75;13.57;;;;;;;6.55;100.00;99619.25;5225563;28;20032;-78
2021/05/07 02:27:07;;;;;;;17.27;13.18;;;;;;;6.50;100.00;99623.78;5244336;28;20111;-79
2021/05/07 02:29:37;;;;;;;21.00;15.02;;;;;;;6.30;100.00;99618.41;5231432;28;20028;-78
2021/05/07 02:32:08;;;;;;;19.83;14.80;;;;;;;6.15;100.00;99624.09;5247514;28;20036;-78
2021/05/07 02:34:38;;;;;;;20.55;13.73;;;;;;;6.28;100.00;99620.22;5226221;28;20067;-78
2021/05/07 02:37:09;;;;;;;21.67;14.35;;;;;;;6.16;100.00;99610.25;5247595;28;20083;-79
2021/05/07 02:39:39;;;;;;;19.35;14.40;;;;;;;6.17;100.00;99606.75;5247182;28;20089;-78
2021/05/07 02:42:10;;;;;;;21.88;14.88;;;;;;;6.02;100.00;99608.13;5222222;28;20070;-79
2021/05/07 02:44:40;;;;;;;22.00;15.10;;;;;;;6.17;100.00;99611.94;5220742;28;20032;-78
2021/05/07 02:47:11;;;;;;;20.27;15.07;;;;;;;6.20;100.00;99617.88;5226330;28;20061;-78
2021/05/07 02:49:42;;;;;;;23.13;16.65;;;;;;;6.17;100.00;99612.78;5222938;28;20141;-79
2021/05/07 02:52:12;;;;;;;20.90;15.23;;;;;;;6.28;100.00;99626.25;5227428;28;20033;-78
2021/05/07 02:54:43;;;;;;;20.70;15.05;;;;;;;6.61;100.00;99621.66;5219480;28;20040;-77
2021/05/07 02:57:13;;;;;;;19.15;14.50;;;;;;;6.79;100.00;99621.84;5225070;28;20025;-79
2021/05/07 02:59:44;;;;;;;23.25;14.90;;;;;;;6.82;100.00;99626.94;5217698;28;20028;-77
2021/05/07 03:02:14;;;;;;;18.92;13.95;;;;;;;6.83;100.00;99630.38;5215148;28;20029;-79
2021/05/07 03:04:45;;;;;;;20.52;14.93;;;;;;;6.81;100.00;99632.19;5228426;28;20404;-78
2021/05/07 03:07:15;;;;;;;22.55;15.00;;;;;;;6.89;100.00;99644.00;5220419;28;20029;-78
2021/05/07 03:09:46;;;;;;;21.13;15.32;;;;;;;6.93;100.00;99648.16;5224190;28;20025;-77
2021/05/07 03:12:16;;;;;;;21.50;15.25;;;;;;;6.91;100.00;99649.16;5221400;28;20093;-78
2021/05/07 03:14:46;;;;;;;20.98;15.38;;;;;;;6.83;100.00;99651.16;5219431;28;20017;-78
2021/05/07 03:17:17;;;;;;;21.33;15.48;;;;;;;6.71;100.00;99659.34;5224388;28;20044;-77
2021/05/07 03:19:48;;;;;;;23.55;16.63;;;;;;;6.88;100.00;99654.41;5223358;28;20401;-78
2021/05/07 03:22:18;;;;;;;22.80;16.35;;;;;;;6.79;100.00;99665.16;5226099;28;20025;-79
2021/05/07 03:24:49;;;;;;;21.42;14.95;;;;;;;6.77;100.00;99677.34;5225038;28;20267;-78
2021/05/07 03:27:19;;;;;;;19.50;15.02;;;;;;;6.76;100.00;99680.84;5224964;28;20025;-79
2021/05/07 03:29:50;;;;;;;22.50;15.60;;;;;;;6.76;100.00;99686.88;5226661;28;20461;-78
2021/05/07 03:32:20;;;;;;;20.48;15.15;;;;;;;6.56;100.00;99696.25;5222805;28;20059;-78
2021/05/07 03:34:50;;;;;;;19.77;14.55;;;;;;;6.61;100.00;99705.56;5221511;28;20395;-78
2021/05/07 03:37:24;;;;;;;22.95;14.82;;;;;;;6.69;100.00;99720.88;5223442;28;20032;-79
2021/05/07 03:39:54;;;;;;;18.73;11.18;;;;;;;6.30;100.00;99712.69;5218278;28;20090;-79
2021/05/07 03:42:24;;;;;;;14.75;10.63;;;;;;;6.25;100.00;99724.91;5211266;28;20026;-78
2021/05/07 03:44:55;;;;;;;14.38;10.07;;;;;;;6.28;100.00;99721.38;5210508;28;20021;-78
2021/05/07 03:47:25;;;;;;;14.60;9.70;;;;;;;6.21;100.00;99730.25;5237683;28;20036;-79
2021/05/07 03:49:55;;;;;;;12.43;9.55;;;;;;;6.33;100.00;99735.06;5217386;28;20017;-79
2021/05/07 03:52:26;;;;;;;11.85;9.07;;;;;;;6.47;100.00;99740.66;5217048;28;20501;-80
2021/05/07 03:54:56;;;;;;;11.75;7.60;;;;;;;6.25;100.00;99753.47;5209970;28;20207;-79
2021/05/07 03:57:27;;;;;;;7.53;4.22;;;;;;;5.80;100.00;99751.41;5239809;28;20046;-79
2021/05/07 03:59:57;;;;;;;6.68;4.63;;;;;;;5.44;100.00;99758.47;5211837;28;20032;-79
2021/05/07 04:02:27;;;;;;;5.75;4.22;;;;;;;5.42;100.00;99770.63;5216283;28;20035;-78
2021/05/07 04:04:58;;;;;;;7.22;4.10;;;;;;;5.31;100.00;99771.81;5215803;28;20025;-79
2021/05/07 04:07:29;;;;;;;6.05;4.18;;;;;;;5.43;100.00;99782.69;5219226;28;20032;-79
2021/05/07 04:10:07;;;;;;;7.00;4.70;;;;;;;5.30;100.00;99790.84;5233232;28;20028;-78
2021/05/07 04:15:17;;;;;;;5.32;3.90;;;;;;;5.16;100.00;99792.94;5241277;28;20228;-79
2021/05/07 04:17:48;;;;;;;6.68;3.88;;;;;;;5.13;100.00;99795.59;5221555;28;20036;-79
2021/05/07 04:20:18;;;;;;;5.82;4.10;;;;;;;5.17;100.00;99805.00;5231991;28;20033;-78
2021/05/07 04:22:48;;;;;;;4.53;3.60;;;;;;;5.14;100.00;99810.25;5225786;28;20457;-78
2021/05/07 04:25:19;;;;;;;6.35;4.18;;;;;;;5.13;100.00;99807.72;5236300;28;20099;-79
2021/05/07 04:27:49;;;;;;;5.30;3.50;;;;;;;5.07;100.00;99824.25;5235532;28;20033;-79
2021/05/07 04:30:20;;;;;;;8.23;3.95;;;;;;;5.13;100.00;99824.09;5220923;28;20021;-79
2021/05/07 04:32:50;;;;;;;6.30;4.00;;;;;;;5.19;100.00;99826.50;5224918;28;20022;-79
2021/05/07 04:35:20;;;;;;;5.15;3.72;;;;;;;5.10;100.00;99829.34;5225095;28;20094;-78
2021/05/07 04:37:51;;;;;;;5.28;3.75;;;;;;;5.23;100.00;99832.47;5233336;28;20029;-79
2021/05/07 04:40:22;;;;;;;4.07;3.10;;;;;;;4.98;100.00;99837.44;5233350;28;20087;-79
2021/05/07 04:42:52;;;;;;;5.13;3.25;;;;;;;5.05;100.00;99843.31;5230974;28;20060;-79
2021/05/07 04:45:22;;;;;;;5.25;3.35;;;;;;;5.17;100.00;99850.78;5234152;28;20080;-79
2021/05/07 04:47:52;;;;;;;5.65;3.83;;;;;;;5.19;100.00;99849.81;5220591;28;20092;-79
2021/05/07 04:50:23;;;;;;;5.15;3.50;;;;;;;5.11;100.00;99851.78;5235032;28;20048;-79
2021/05/07 04:52:54;;;;;;;6.47;3.40;;;;;;;5.17;100.00;99851.59;5222527;28;20033;-80
2021/05/07 04:55:30;;;;;;;5.97;3.40;;;;;;;5.28;100.00;99862.56;5234025;28;20032;-79
2021/05/07 04:58:00;;;;;;;5.80;3.45;;;;;;;4.90;100.00;99866.97;5225427;28;20036;-80
2021/05/07 05:00:31;;;;;;;5.28;3.40;;;;;;;4.73;100.00;99875.16;5234306;28;20513;-79
2021/05/07 05:03:01;;;;;;;4.82;3.22;;;;;;;4.62;100.00;99886.66;5236575;28;20029;-79
2021/05/07 05:05:31;;;;;;;4.93;3.20;;;;;;;4.71;100.00;99879.53;5235248;28;20031;-79
2021/05/07 05:08:03;;;;;;;4.75;3.25;;;;;;;4.95;100.00;99881.50;5236661;28;20031;-79
2021/05/07 05:10:33;;;;;;;4.55;2.80;;;;;;;4.93;100.00;99882.44;5217249;28;20641;-79
2021/05/07 05:13:04;;;;;;;4.18;3.13;;;;;;;4.81;100.00;99886.16;5238043;28;20044;-78
2021/05/07 05:15:34;;;;;;;4.20;3.40;;;;;;;4.80;100.00;99884.47;5234721;28;20020;-77
2021/05/07 05:18:04;;;;;;;4.47;3.13;;;;;;;5.05;100.00;99887.31;5240288;28;20040;-79
2021/05/07 05:20:35;;;;;;;4.82;3.20;;;;;;;5.14;100.00;99895.72;5238542;28;20025;-78
2021/05/07 05:23:06;;;;;;;4.00;3.17;;;;;;;4.89;100.00;99896.34;5222254;28;20025;-78
2021/05/07 05:25:36;;;;;;;6.35;3.95;;;;;;;4.86;100.00;99911.94;5221998;28;20127;-79
2021/05/07 05:28:06;;;;;;;6.15;4.07;;;;;;;4.95;100.00;99907.41;5221921;28;20029;-79
2021/05/07 05:30:36;;;;;;;5.78;4.30;;;;;;;4.70;100.00;99916.63;5215247;28;20458;-78
2021/05/07 05:33:07;;;;;;;5.60;4.40;;;;;;;4.68;100.00;99912.38;5239094;28;20029;-79
2021/05/07 05:35:37;;;;;;;6.80;4.60;;;;;;;4.80;100.00;99907.75;5221231;28;20017;-79
2021/05/07 05:38:08;;;;;;;5.30;4.32;;;;;;;4.94;100.00;99908.28;5237545;28;20033;-79
2021/05/07 05:40:39;;;;;;;6.43;4.75;;;;;;;4.99;100.00;99911.63;5239583;28;20024;-80
2021/05/07 05:43:09;;;;;;;6.50;4.63;;;;;;;5.01;100.00;99909.00;5242847;28;20036;-79
2021/05/07 05:45:39;;;;;;;6.22;4.55;;;;;;;5.28;100.00;99911.75;5221074;28;20036;-78
2021/05/07 05:48:14;;;;;;;6.30;4.38;;;;;;;5.12;100.00;99918.22;5217620;28;20060;-78
2021/05/07 05:50:47;;;;;;;8.27;5.30;;;;;;;5.08;100.00;99913.13;5217462;28;20025;-78
2021/05/07 05:53:18;;;;;;;5.97;4.93;;;;;;;5.14;100.00;99913.84;5214834;28;20101;-78
2021/05/07 05:55:49;;;;;;;7.55;5.50;;;;;;;5.24;100.00;99919.63;5218510;28;20017;-80
2021/05/07 05:58:19;;;;;;;7.53;5.40;;;;;;;5.02;100.00;99919.34;5216840;28;20030;-79
2021/05/07 06:00:50;;;;;;;7.53;5.43;;;;;;;5.12;100.00;99923.38;5210191;28;20025;-79
2021/05/07 06:03:20;;;;;;;6.90;5.03;;;;;;;5.42;100.00;99930.41;5215363;28;20527;-78
2021/05/07 06:05:51;;;;;;;8.68;5.63;;;;;;;5.40;100.00;99937.38;5218987;28;20052;-79
2021/05/07 06:08:22;;;;;;;7.05;5.53;;;;;;;5.48;100.00;99938.88;5214400;28;20115;-79
2021/05/07 06:10:52;;;;;;;8.60;5.68;;;;;;;5.51;100.00;99931.03;5219714;28;20499;-78
2021/05/07 06:13:23;;;;;;;7.45;5.80;;;;;;;5.34;100.00;99939.25;5220564;28;20100;-79
2021/05/07 06:15:53;;;;;;;7.95;5.40;;;;;;;5.48;100.00;99945.78;5221872;28;20036;-78
2021/05/07 06:18:23;;;;;;;9.88;5.88;;;;;;;5.75;100.00;99939.91;5212165;28;20036;-80
2021/05/07 06:20:54;;;;;;;9.32;6.53;;;;;;;5.81;100.00;99945.81;5215076;28;20048;-79
2021/05/07 06:23:25;;;;;;;10.40;6.78;;;;;;;5.91;100.00;99949.84;5219266;28;20025;-79
2021/05/07 06:25:55;;;;;;;8.88;6.53;;;;;;;6.09;100.00;99951.09;5215808;28;20025;-79
2021/05/07 06:28:25;;;;;;;9.30;6.85;;;;;;;6.00;100.00;99957.41;5219714;28;20025;-80
2021/05/07 06:30:58;;;;;;;8.20;6.63;;;;;;;6.11;100.00;99959.69;5210744;28;20086;-80
2021/05/07 06:33:29;;;;;;;10.50;6.88;;;;;;;6.17;100.00;99960.38;5217545;28;20507;-78
2021/05/07 06:35:59;;;;;;;9.70;6.57;;;;;;;6.31;100.00;99962.56;5215769;28;20029;-77
2021/05/07 06:38:29;;;;;;;9.70;7.20;;;;;;;6.32;100.00;99954.75;5217504;28;20491;-78
2021/05/07 06:41:00;;;;;;;11.95;7.38;;;;;;;6.28;100.00;99973.03;5216058;28;20036;-79
2021/05/07 06:43:30;;;;;;;9.60;7.05;;;;;;;6.33;100.00;99968.56;5225324;28;20051;-80
2021/05/07 06:46:00;;;;;;;10.77;7.47;;;;;;;6.16;100.00;99975.97;5230591;28;20035;-80
2021/05/07 06:48:31;;;;;;;8.80;7.55;;;;;;;6.19;100.00;99966.38;5237758;28;20107;-79
2021/05/07 06:51:01;;;;;;;10.88;8.30;;;;;;;6.27;100.00;99974.78;5237811;28;20494;-80
2021/05/07 06:53:31;;;;;;;10.30;8.15;;;;;;;6.43;100.00;99976.03;5236838;28;20029;-80
2021/05/07 06:56:02;;;;;;;9.88;8.05;;;;;;;6.25;100.00;99973.97;5220410;28;20307;-78
2021/05/07 06:58:32;;;;;;;12.70;8.30;;;;;;;6.39;100.00;99987.41;5236989;28;20096;-79
2021/05/07 07:01:03;;;;;;;14.63;9.07;;;;;;;6.35;100.00;99979.75;5217557;28;20035;-80
2021/05/07 07:03:33;;;;;;;11.60;8.70;;;;;;;6.52;100.00;99982.72;5237984;28;20025;-79
2021/05/07 07:06:03;;;;;;;13.18;9.63;;;;;;;6.57;100.00;99980.88;5235316;28;20029;-78
2021/05/07 07:08:34;;;;;;;12.32;9.45;;;;;;;6.38;100.00;99993.50;5233717;28;20414;-78
2021/05/07 07:11:04;;;;;;;13.23;9.55;;;;;;;7.37;100.00;99986.09;5227572;28;20033;-78
2021/05/07 07:13:34;;;;;;;12.38;8.98;;;;;;;8.09;96.82;99975.00;5239040;28;20024;-80
2021/05/07 07:16:05;;;;;;;11.32;8.18;;;;;;;8.58;93.38;99974.97;5236741;28;20059;-79
2021/05/07 07:18:35;;;;;;;9.60;7.45;;;;;;;10.22;89.20;99967.34;5225000;28;20024;-80
2021/05/07 07:21:06;;;;;;;8.25;6.88;;;;;;;9.58;88.19;99974.41;5225360;28;20122;-80
2021/05/07 07:23:37;;;;;;;8.20;6.75;;;;;;;9.68;89.13;99967.03;5238062;28;20066;-80
2021/05/07 07:26:08;;;;;;;8.43;6.68;;;;;;;11.41;83.96;99966.91;5228267;28;20584;-80
2021/05/07 07:28:38;;;;;;;8.50;6.10;;;;;;;11.36;83.22;99968.91;5220757;28;20097;-80
2021/05/07 07:31:09;;;;;;;9.88;6.40;;;;;;;11.09;83.72;99978.06;5222668;28;20040;-80
2021/05/07 07:33:39;;;;;;;8.23;6.68;;;;;;;9.97;87.79;99987.56;5219377;28;20017;-80
2021/05/07 07:36:09;;;;;;;9.63;7.90;;;;;;;9.20;89.45;99992.50;5235480;28;20024;-79
2021/05/07 07:38:40;;;;;;;10.73;8.43;;;;;;;8.29;90.04;100004.66;5218070;28;20037;-79
2021/05/07 07:41:10;;;;;;;16.15;10.38;;;;;;;8.05;93.52;100000.25;5217273;28;20033;-79
2021/05/07 07:43:42;;;;;;;15.02;10.63;;;;;;;8.38;93.53;99999.09;5232870;28;20028;-79
2021/05/07 07:46:13;;;;;;;13.27;10.70;;;;;;;8.47;92.73;100009.22;5252193;22;20040;-80
2021/05/07 07:48:43;;;;;;;15.73;11.40;;;;;;;8.59;91.01;100005.31;5246389;28;20020;-80
2021/05/07 07:51:14;;;;;;;14.80;11.13;;;;;;;8.45;91.82;100016.22;5242069;28;20028;-79
2021/05/07 07:53:44;;;;;;;15.90;12.80;;;;;;;8.46;94.11;100014.47;5264920;28;20020;-80
2021/05/07 07:56:14;;;;;;;14.07;11.10;;;;;;;8.26;92.42;100023.00;5227258;28;20064;-79
2021/05/07 07:58:44;;;;;;;15.00;11.73;;;;;;;8.46;94.50;100028.34;5215384;28;20029;-79
2021/05/07 08:01:15;;;;;;;14.45;11.93;;;;;;;8.26;92.93;100025.59;5242514;28;20031;-79
2021/05/07 08:03:45;;;;;;;15.45;11.90;;;;;;;9.12;91.40;100036.28;5235158;28;20500;-79
2021/05/07 08:06:16;;;;;;;15.23;11.98;;;;;;;8.99;91.20;100028.97;5222642;28;20035;-79
2021/05/07 08:08:47;;;;;;;14.25;11.63;;;;;;;9.70;90.25;100030.44;5211431;28;20025;-79
2021/05/07 08:11:17;;;;;;;14.07;11.30;;;;;;;10.52;86.55;100029.50;5237102;28;20051;-80
2021/05/07 08:13:48;;;;;;;15.00;11.05;;;;;;;10.18;86.37;100041.50;5241801;28;20107;-79
2021/05/07 08:16:18;;;;;;;16.08;11.82;;;;;;;9.33;85.24;100043.25;5226849;28;20139;-79
2021/05/07 08:18:48;;;;;;;14.48;11.38;;;;;;;8.92;86.16;100050.97;5242937;28;20051;-79
2021/05/07 08:21:19;;;;;;;15.60;12.73;;;;;;;8.94;87.34;100047.41;5217703;28;20115;-79
2021/05/07 08:23:49;;;;;;;15.40;12.52;;;;;;;8.83;86.38;100052.16;5247638;28;20024;-79
2021/05/07 08:26:19;;;;;;;16.83;13.70;;;;;;;8.93;89.00;100056.09;5236459;28;20029;-78
2021/05/07 08:28:50;;;;;;;14.10;11.98;;;;;;;9.25;85.53;100069.63;5244238;28;20047;-79
2021/05/07 08:31:20;;;;;;;13.90;11.40;;;;;;;9.24;85.28;100067.06;5227133;28;20024;-77
2021/05/07 08:33:50;;;;;;;13.57;11.40;;;;;;;9.38;85.40;100075.22;5241837;28;20021;-78
2021/05/07 08:36:21;;;;;;;13.02;9.70;;;;;;;9.42;83.57;100082.00;5237964;28;20045;-78
2021/05/07 08:38:51;;;;;;;13.93;10.65;;;;;;;9.22;86.18;100081.91;5224241;28;20037;-77
2021/05/07 08:41:22;;;;;;;14.82;10.70;;;;;;;8.67;86.48;100095.28;5241415;28;20040;-78
2021/05/07 08:43:53;;;;;;;14.27;11.50;;;;;;;8.54;88.58;100087.97;5219844;28;20496;-77
2021/05/07 08:46:24;;;;;;;13.52;10.55;;;;;;;8.39;88.93;100099.75;5238567;28;20029;-78
2021/05/07 08:48:56;;;;;;;14.98;10.00;;;;;;;8.64;90.07;100105.81;5219181;28;20518;-78
2021/05/07 08:51:26;;;;;;;13.82;9.80;;;;;;;8.79;89.16;100107.00;5226651;28;20016;-77
2021/05/07 08:53:56;;;;;;;10.57;8.60;;;;;;;8.87;85.87;100099.78;5237873;28;20474;-79
2021/05/07 08:56:27;;;;;;;11.55;9.30;;;;;;;9.07;86.09;100097.31;5227246;28;20088;-77
2021/05/07 08:58:57;;;;;;;11.95;9.40;;;;;;;9.07;87.44;100121.59;5228532;28;20090;-76
2021/05/07 09:01:45;;;;;;;10.88;9.50;;;;;;;8.75;84.73;100126.28;5246679;28;20032;-78
2021/05/07 09:04:18;;;;;;;10.38;8.73;;;;;;;8.58;86.09;100131.22;5223734;28;20125;-77
2021/05/07 09:06:51;;;;;;;12.10;9.27;;;;;;;8.57;86.38;100135.56;5227159;28;20021;-76
2021/05/07 09:09:28;;;;;;;11.85;9.55;;;;;;;8.67;88.08;100141.31;5242491;28;20639;-78
2021/05/07 09:12:01;;;;;;;9.88;8.32;;;;;;;8.73;85.69;100131.53;5239380;28;20071;-79
2021/05/07 09:14:31;;;;;;;9.38;7.35;;;;;;;8.53;83.43;100144.38;5223226;28;20393;-78
2021/05/07 09:17:03;;;;;;;10.45;7.65;;;;;;;8.62;85.89;100145.84;5242615;28;20024;-79
2021/05/07 09:19:37;;;;;;;9.32;6.60;;;;;;;8.28;84.78;100146.13;5244150;28;20024;-78
2021/05/07 09:22:07;;;;;;;8.32;5.68;;;;;;;8.20;84.68;100161.13;5239936;28;20040;-78
2021/05/07 09:24:40;;;;;;;8.32;5.45;;;;;;;8.23;84.43;100160.19;5240186;28;20032;-79
2021/05/07 09:27:20;;;;;;;6.65;4.72;;;;;;;8.94;83.04;100151.63;5239822;28;20092;-78
2021/05/07 09:29:50;;;;;;;7.50;5.30;;;;;;;9.70;83.26;100150.47;5236322;28;20048;-79
2021/05/07 09:32:32;;;;;;;6.38;5.20;;;;;;;10.03;80.19;100157.00;5221269;28;20094;-79
2021/05/07 09:35:13;;;;;;;6.25;5.05;;;;;;;9.76;78.46;100158.91;5237773;28;20032;-79
2021/05/07 09:37:44;;;;;;;6.72;4.95;;;;;;;10.01;78.69;100162.28;5240412;28;20024;-79
2021/05/07 09:40:19;;;;;;;6.03;4.55;;;;;;;10.63;76.34;100155.31;5219600;28;20636;-78
2021/05/07 09:42:50;;;;;;;6.18;4.22;;;;;;;10.95;74.49;100161.78;5237357;28;20025;-79
2021/05/07 09:45:24;;;;;;;5.13;3.28;;;;;;;10.96;73.86;100168.69;5239114;28;20028;-78
2021/05/07 09:47:55;;;;;;;4.53;3.38;;;;;;;10.83;73.12;100167.56;5248263;28;20049;-79
2021/05/07 09:50:40;;;;;;;4.70;3.20;;;;;;;11.11;75.20;100176.75;5242737;28;20032;-77
2021/05/07 09:53:15;;;;;;;6.93;3.03;;;;;;;11.11;73.73;100184.59;5244955;28;20552;-78
2021/05/07 09:55:47;;;;;;;5.07;3.22;;;;;;;10.44;74.36;100179.66;5225415;28;20032;-78
2021/05/07 09:58:17;;;;;;;22.48;13.10;;;;;;;10.47;74.19;100182.16;5236472;28;20136;-78
2021/05/07 10:00:48;;;;;;;8.15;5.13;;;;;;;10.28;73.75;100191.66;5234944;28;20103;-79
2021/05/07 10:03:18;;;;;;;7.32;4.65;;;;;;;10.31;75.11;100178.50;5218681;28;20052;-79
2021/05/07 10:05:48;;;;;;;4.35;3.10;;;;;;;10.39;74.91;100186.84;5237351;28;20108;-79
2021/05/07 10:08:19;;;;;;;8.13;5.30;;;;;;;10.43;75.09;100194.50;5221500;28;20024;-78
2021/05/07 10:10:56;;;;;;;5.93;3.50;;;;;;;10.01;74.62;100187.50;5217397;28;20034;-79
2021/05/07 10:13:31;;;;;;;6.65;4.15;;;;;;;9.75;76.30;100201.56;5236043;28;20024;-79
2021/05/07 10:16:03;;;;;;;14.63;8.82;;;;;;;9.54;78.38;100206.75;5219265;28;20036;-78
2021/05/07 10:18:34;;;;;;;5.85;3.70;;;;;;;9.04;78.49;100204.28;5219708;28;20056;-79
2021/05/07 10:21:09;;;;;;;6.97;4.38;;;;;;;9.02;78.91;100206.06;5237798;28;20200;-79
2021/05/07 10:23:53;;;;;;;5.50;3.72;;;;;;;9.19;80.47;100217.59;5218009;28;20024;-79
2021/05/07 10:26:34;;;;;;;5.53;4.00;;;;;;;9.14;83.05;100209.09;5236527;28;20028;-78
2021/05/07 10:29:21;;;;;;;6.10;3.25;;;;;;;8.88;80.82;100213.53;5236689;28;20060;-79
2021/05/07 10:31:56;;;;;;;6.47;3.65;;;;;;;8.86;80.60;100221.38;5240848;28;20035;-79
2021/05/07 10:34:27;;;;;;;6.25;4.05;;;;;;;9.06;81.60;100228.53;5230752;28;20554;-79
2021/05/07 10:37:10;;;;;;;5.68;4.22;;;;;;;9.31;81.58;100231.03;5240069;28;20091;-78
2021/05/07 10:39:54;;;;;;;4.75;3.05;;;;;;;8.99;79.43;100216.59;5232964;28;20036;-78
2021/05/07 10:42:25;;;;;;;6.97;3.30;;;;;;;9.14;79.46;100240.38;5239493;28;20020;-78
2021/05/07 10:44:55;;;;;;;5.28;3.50;;;;;;;9.36;78.60;100234.38;5226738;28;20028;-79
2021/05/07 10:47:36;;;;;;;4.55;3.40;;;;;;;9.70;78.62;100241.78;5222765;28;20028;-78
2021/05/07 10:50:16;;;;;;;3.97;2.60;;;;;;;9.54;76.41;100240.66;5219465;28;20115;-79
2021/05/07 10:52:47;;;;;;;5.97;3.65;;;;;;;9.64;76.80;100248.06;5244761;28;20016;-77
2021/05/07 10:55:17;;;;;;;12.52;6.05;;;;;;;9.58;74.96;100244.84;5238583;28;20052;-75
2021/05/07 10:57:55;;;;;;;6.40;3.90;;;;;;;9.85;75.08;100241.22;5233434;28;20463;-78
2021/05/07 11:00:35;;;;;;;5.70;4.10;;;;;;;10.28;74.32;100241.28;5236118;28;20021;-77
2021/05/07 11:03:18;;;;;;;3.50;2.35;;;;;;;9.95;74.69;100255.59;5236422;28;20094;-77
2021/05/07 11:06:01;;;;;;;6.53;2.60;;;;;;;9.86;75.11;100261.19;5283138;27;20384;-78
2021/05/07 11:08:32;;;;;;;4.07;2.70;;;;;;;10.46;75.86;100257.06;5267417;28;20471;-76
2021/05/07 11:11:03;;;;;;;4.80;2.95;;;;;;;10.59;76.84;100250.44;5275266;28;20058;-78
2021/05/07 11:13:36;;;;;;;4.78;2.60;;;;;;;10.70;74.30;100252.63;5259369;28;20484;-77
2021/05/07 11:16:06;;;;;;;4.32;2.90;;;;;;;10.75;73.36;100255.88;5258216;28;20030;-79
2021/05/07 11:18:37;;;;;;;4.20;2.67;;;;;;;11.22;74.39;100256.44;5267722;28;20032;-79
2021/05/07 11:21:12;;;;;;;4.47;2.58;;;;;;;11.24;70.84;100257.22;5274776;28;20035;-79
2021/05/07 11:23:42;;;;;;;3.78;2.38;;;;;;;11.29;72.20;100255.25;5275960;28;20044;-78
2021/05/07 11:26:12;;;;;;;2.80;2.10;;;;;;;11.23;71.09;100258.13;5256039;28;20052;-79
2021/05/07 11:28:44;;;;;;;3.83;2.40;;;;;;;11.27;73.06;100269.31;5254298;28;20564;-78
2021/05/07 11:31:15;;;;;;;3.17;2.05;;;;;;;10.59;70.34;100280.94;5256914;28;20039;-78
2021/05/07 11:33:45;;;;;;;3.38;2.10;;;;;;;10.46;72.22;100284.94;5278503;28;20512;-79
2021/05/07 11:36:17;;;;;;;3.22;2.00;;;;;;;10.36;71.81;100283.63;5255843;28;20762;-79
2021/05/07 11:38:48;;;;;;;4.35;2.90;;;;;;;9.89;73.48;100282.81;5267635;28;20032;-78
2021/05/07 11:41:26;;;;;;;5.32;3.33;;;;;;;9.94;76.25;100282.63;5272563;28;20226;-78
2021/05/07 11:44:06;;;;;;;5.00;3.33;;;;;;;9.55;76.84;100294.53;5268210;28;20025;-78
2021/05/07 11:46:36;;;;;;;6.28;3.50;;;;;;;9.92;77.28;100292.25;5256149;28;20028;-78